createdAt,value
2022-11-24T00:01:00.025Z,7.40
2022-11-24T00:03:26.891Z,7.40
2022-11-24T00:05:53.596Z,7.40
2022-11-24T00:08:20.478Z,7.40
2022-11-24T00:10:47.142Z,7.30
2022-11-24T00:13:13.803Z,7.30
2022-11-24T00:15:40.445Z,7.40
2022-11-24T00:18:07.290Z,7.30
2022-11-24T00:20:33.960Z,7.40
2022-11-24T00:23:00.838Z,7.40
2022-11-24T00:25:27.529Z,7.40
2022-11-24T00:27:54.172Z,7.40
2022-11-24T00:30:20.820Z,7.30
2022-11-24T00:32:47.689Z,7.30
2022-11-24T00:35:14.339Z,7.30
2022-11-24T00:37:41.216Z,7.40
2022-11-24T00:40:07.889Z,7.30
2022-11-24T00:42:34.532Z,7.30
2022-11-24T00:45:12.926Z,7.30
2022-11-24T00:47:40.339Z,7.30
2022-11-24T00:50:07.001Z,7.30
2022-11-24T00:52:33.635Z,7.40
2022-11-24T00:55:00.558Z,7.30
2022-11-24T00:57:27.201Z,7.30
2022-11-24T00:59:53.874Z,7.30
2022-11-24T01:02:20.680Z,7.40
2022-11-24T01:04:47.399Z,7.30
2022-11-24T01:07:14.110Z,7.30
2022-11-24T01:09:40.838Z,7.30
2022-11-24T01:12:07.489Z,7.30
2022-11-24T01:14:34.294Z,7.30
2022-11-24T01:17:01.122Z,7.30
2022-11-24T01:19:27.778Z,7.30
2022-11-24T01:21:54.446Z,7.30
2022-11-24T01:24:21.096Z,7.30
2022-11-24T01:26:47.749Z,7.30
2022-11-24T01:29:14.394Z,7.30
2022-11-24T01:31:41.033Z,7.30
2022-11-24T01:34:07.905Z,7.30
2022-11-24T01:36:34.545Z,7.30
2022-11-24T01:39:01.397Z,7.30
2022-11-24T01:41:28.040Z,7.30
2022-11-24T01:43:54.897Z,7.30
2022-11-24T01:46:21.820Z,7.30
2022-11-24T01:48:48.497Z,7.30
2022-11-24T01:51:15.364Z,7.30
2022-11-24T01:53:42.014Z,7.30
2022-11-24T01:56:08.652Z,7.30
2022-11-24T01:58:35.313Z,7.30
2022-11-24T02:01:01.985Z,7.30
2022-11-24T02:03:28.690Z,7.30
2022-11-24T02:05:55.562Z,7.30
2022-11-24T02:08:22.228Z,7.30
2022-11-24T02:10:49.081Z,7.30
2022-11-24T02:13:15.744Z,7.30
2022-11-24T02:15:42.405Z,7.30
2022-11-24T02:18:09.317Z,7.30
2022-11-24T02:20:35.976Z,7.30
2022-11-24T02:23:02.660Z,7.30
2022-11-24T02:25:29.328Z,7.30
2022-11-24T02:27:55.989Z,7.30
2022-11-24T02:30:22.641Z,7.30
2022-11-24T02:32:49.498Z,7.30
2022-11-24T02:35:16.165Z,7.30
2022-11-24T02:37:43.044Z,7.30
2022-11-24T02:40:09.705Z,7.30
2022-11-24T02:42:36.374Z,7.30
2022-11-24T02:45:03.021Z,7.30
2022-11-24T02:47:29.661Z,7.30
2022-11-24T02:49:56.518Z,7.30
2022-11-24T02:52:23.179Z,7.30
2022-11-24T02:54:49.846Z,7.30
2022-11-24T02:57:16.710Z,7.30
2022-11-24T02:59:43.565Z,7.30
2022-11-24T03:02:10.210Z,7.30
2022-11-24T03:04:37.322Z,7.30
2022-11-24T03:07:04.007Z,7.30
2022-11-24T03:09:30.892Z,7.30
2022-11-24T03:11:57.564Z,7.30
2022-11-24T03:14:24.425Z,7.30
2022-11-24T03:16:51.065Z,7.20
2022-11-24T03:19:17.713Z,7.30
2022-11-24T03:21:44.596Z,7.30
2022-11-24T03:24:11.507Z,7.30
2022-11-24T03:26:38.386Z,7.30
2022-11-24T03:29:05.236Z,7.30
2022-11-24T03:31:32.008Z,7.30
2022-11-24T03:33:58.730Z,7.30
2022-11-24T03:36:25.588Z,7.30
2022-11-24T03:38:52.232Z,7.20
2022-11-24T03:41:18.914Z,7.20
2022-11-24T03:43:45.564Z,7.30
2022-11-24T03:46:12.520Z,7.20
2022-11-24T03:48:39.316Z,7.30
2022-11-24T03:51:06.073Z,7.20
2022-11-24T03:53:32.715Z,7.20
2022-11-24T03:55:59.563Z,7.20
2022-11-24T03:58:26.216Z,7.20
2022-11-24T04:00:52.865Z,7.30
2022-11-24T04:03:19.510Z,7.30
2022-11-24T04:05:46.372Z,7.20
2022-11-24T04:08:13.021Z,7.20
2022-11-24T04:10:39.690Z,7.20
2022-11-24T04:13:06.338Z,7.20
2022-11-24T04:15:32.978Z,7.20
2022-11-24T04:17:59.640Z,7.20
2022-11-24T04:20:26.364Z,7.30
2022-11-24T04:22:53.008Z,7.20
2022-11-24T04:25:19.882Z,7.20
2022-11-24T04:27:46.539Z,7.20
2022-11-24T04:30:13.200Z,7.30
2022-11-24T04:32:40.076Z,7.30
2022-11-24T04:35:06.954Z,7.20
2022-11-24T04:37:33.618Z,7.20
2022-11-24T04:40:00.495Z,7.20
2022-11-24T04:42:27.369Z,7.30
2022-11-24T04:44:54.084Z,7.20
2022-11-24T04:47:21.092Z,7.20
2022-11-24T04:49:47.764Z,7.20
2022-11-24T04:52:14.405Z,7.20
2022-11-24T04:54:41.271Z,7.20
2022-11-24T04:57:08.129Z,7.20
2022-11-24T04:59:34.784Z,7.20
2022-11-24T05:02:01.741Z,7.20
2022-11-24T05:04:28.709Z,7.30
2022-11-24T05:06:55.395Z,7.20
2022-11-24T05:09:22.182Z,7.20
2022-11-24T05:11:48.868Z,7.20
2022-11-24T05:14:15.542Z,7.20
2022-11-24T05:16:42.296Z,7.20
2022-11-24T05:19:08.977Z,7.20
2022-11-24T05:21:35.853Z,7.20
2022-11-24T05:24:02.542Z,7.20
2022-11-24T05:26:29.212Z,7.20
2022-11-24T05:28:55.858Z,7.20
2022-11-24T05:31:22.748Z,7.20
2022-11-24T05:33:49.419Z,7.20
2022-11-24T05:36:16.076Z,7.20
2022-11-24T05:38:42.790Z,7.20
2022-11-24T05:41:09.665Z,7.20
2022-11-24T05:43:36.321Z,7.20
2022-11-24T05:46:02.974Z,7.20
2022-11-24T05:48:29.642Z,7.20
2022-11-24T05:50:56.290Z,7.20
2022-11-24T05:53:22.962Z,7.20
2022-11-24T05:55:49.854Z,7.20
2022-11-24T05:58:16.529Z,7.20
2022-11-24T06:00:43.196Z,7.20
2022-11-24T06:03:09.999Z,7.20
2022-11-24T06:05:36.807Z,7.20
2022-11-24T06:08:03.680Z,7.20
2022-11-24T06:10:30.335Z,7.20
2022-11-24T06:12:57.197Z,7.20
2022-11-24T06:15:23.872Z,7.20
2022-11-24T06:17:50.512Z,7.20
2022-11-24T06:20:17.157Z,7.20
2022-11-24T06:22:43.805Z,7.20
2022-11-24T06:25:11.245Z,7.20
2022-11-24T06:27:38.134Z,7.20
2022-11-24T06:30:04.808Z,7.20
2022-11-24T06:32:31.680Z,7.20
2022-11-24T06:34:58.332Z,7.20
2022-11-24T06:37:25.013Z,7.20
2022-11-24T06:39:51.671Z,7.20
2022-11-24T06:42:18.541Z,7.20
2022-11-24T06:44:45.189Z,7.20
2022-11-24T06:47:12.006Z,7.20
2022-11-24T06:49:38.865Z,7.20
2022-11-24T06:52:05.736Z,7.20
2022-11-24T06:54:32.801Z,7.20
2022-11-24T06:56:59.877Z,7.20
2022-11-24T06:59:26.533Z,7.20
2022-11-24T07:01:53.205Z,7.20
2022-11-24T07:04:19.872Z,7.20
2022-11-24T07:06:46.523Z,7.20
2022-11-24T07:09:13.376Z,7.20
2022-11-24T07:11:40.013Z,7.20
2022-11-24T07:14:06.672Z,7.20
2022-11-24T07:16:33.419Z,7.20
2022-11-24T07:19:00.134Z,7.20
2022-11-24T07:21:27.551Z,7.20
2022-11-24T07:23:54.209Z,7.20
2022-11-24T07:26:20.858Z,7.20
2022-11-24T07:28:47.500Z,7.20
2022-11-24T07:31:14.239Z,7.20
2022-11-24T07:33:40.917Z,7.20
2022-11-24T07:36:07.565Z,7.20
2022-11-24T07:38:34.466Z,7.20
2022-11-24T07:41:01.143Z,7.20
2022-11-24T07:43:27.807Z,7.20
2022-11-24T07:45:54.529Z,7.20
2022-11-24T07:48:21.212Z,7.20
2022-11-24T07:50:52.510Z,7.20
2022-11-24T07:53:22.290Z,7.20
2022-11-24T07:55:49.175Z,7.20
2022-11-24T07:58:15.832Z,7.20
2022-11-24T08:00:42.488Z,7.20
2022-11-24T08:03:09.153Z,7.20
2022-11-24T08:05:41.115Z,7.20
2022-11-24T08:08:16.106Z,7.20
2022-11-24T08:10:42.760Z,7.20
2022-11-24T08:13:09.466Z,7.20
2022-11-24T08:15:36.130Z,7.20
2022-11-24T08:18:02.807Z,7.20
2022-11-24T08:20:29.497Z,7.20
2022-11-24T08:22:56.183Z,7.20
2022-11-24T08:25:22.851Z,7.20
2022-11-24T08:27:49.513Z,7.20
2022-11-24T08:30:16.176Z,7.20
2022-11-24T08:32:42.839Z,7.20
2022-11-24T08:35:14.067Z,7.20
2022-11-24T08:37:41.096Z,7.20
2022-11-24T08:40:07.955Z,7.20
2022-11-24T08:42:34.593Z,7.20
2022-11-24T08:45:17.528Z,7.20
2022-11-24T08:47:47.797Z,7.20
2022-11-24T08:50:14.436Z,7.20
2022-11-24T08:52:41.108Z,7.30
2022-11-24T08:55:08.829Z,7.30
2022-11-24T08:57:35.473Z,7.20
2022-11-24T09:00:02.626Z,7.20
2022-11-24T09:02:29.266Z,7.30
2022-11-24T09:04:56.132Z,7.30
2022-11-24T09:07:23.035Z,7.30
2022-11-24T09:09:49.723Z,7.30
2022-11-24T09:12:16.369Z,7.30
2022-11-24T09:14:43.034Z,7.30
2022-11-24T09:17:09.971Z,7.30
2022-11-24T09:19:37.036Z,7.30
2022-11-24T09:22:03.729Z,7.30
2022-11-24T09:24:30.608Z,7.30
2022-11-24T09:26:57.277Z,7.30
2022-11-24T09:29:23.931Z,7.30
2022-11-24T09:31:50.569Z,7.30
2022-11-24T09:34:17.208Z,7.30
2022-11-24T09:36:44.074Z,7.30
2022-11-24T09:39:10.741Z,7.30
2022-11-24T09:41:37.401Z,7.30
2022-11-24T09:44:04.074Z,7.40
2022-11-24T09:46:30.783Z,7.40
2022-11-24T09:48:57.442Z,7.40
2022-11-24T09:51:24.086Z,7.40
2022-11-24T09:53:50.728Z,7.40
2022-11-24T09:56:18.015Z,7.40
2022-11-24T09:58:44.663Z,7.50
2022-11-24T10:01:11.602Z,7.40
2022-11-24T10:03:38.295Z,7.40
2022-11-24T10:06:05.182Z,7.50
2022-11-24T10:08:31.829Z,7.40
2022-11-24T10:10:58.681Z,7.40
2022-11-24T10:13:25.361Z,7.40
2022-11-24T10:15:52.107Z,7.40
2022-11-24T10:18:18.767Z,7.40
2022-11-24T10:20:46.068Z,7.40
2022-11-24T10:23:12.928Z,7.50
2022-11-24T10:25:39.569Z,7.40
2022-11-24T10:28:06.455Z,7.40
2022-11-24T10:30:33.146Z,7.40
2022-11-24T10:32:59.807Z,7.50
2022-11-24T10:35:26.461Z,7.50
2022-11-24T10:37:53.127Z,7.50
2022-11-24T10:40:48.743Z,7.50
2022-11-24T10:43:06.618Z,7.50
2022-11-24T10:45:33.472Z,7.50
2022-11-24T10:48:00.110Z,7.50
2022-11-24T10:50:26.764Z,7.50
2022-11-24T10:52:53.408Z,7.50
2022-11-24T10:55:21.703Z,7.50
2022-11-24T10:57:48.499Z,7.50
2022-11-24T11:00:15.196Z,7.50
2022-11-24T11:02:42.190Z,7.50
2022-11-24T11:05:09.124Z,7.50
2022-11-24T11:07:35.802Z,7.50
2022-11-24T11:10:02.484Z,7.60
2022-11-24T11:12:43.431Z,7.60
2022-11-24T11:15:10.897Z,7.60
2022-11-24T11:17:37.541Z,7.60
2022-11-24T11:20:04.819Z,7.60
2022-11-24T11:22:31.642Z,7.60
2022-11-24T11:24:58.493Z,7.60
2022-11-24T11:27:25.363Z,7.60
2022-11-24T11:35:25.523Z,7.80
2022-11-24T11:37:52.158Z,7.80
2022-11-24T11:40:19.362Z,7.80
2022-11-24T11:43:02.030Z,7.80
2022-11-24T11:45:29.378Z,7.80
2022-11-24T11:47:56.096Z,7.80
2022-11-24T11:50:22.826Z,7.90
2022-11-24T11:52:49.506Z,7.80
2022-11-24T11:55:16.157Z,7.80
2022-11-24T11:57:42.834Z,7.80
2022-11-24T12:00:09.496Z,7.80
2022-11-24T12:02:36.455Z,7.80
2022-11-24T12:05:03.462Z,7.80
2022-11-24T12:07:30.370Z,7.80
2022-11-24T12:09:57.087Z,7.80
2022-11-24T12:12:23.765Z,7.80
2022-11-24T12:14:50.428Z,7.80
2022-11-24T12:17:17.079Z,7.80
2022-11-24T12:19:43.937Z,7.70
2022-11-24T12:22:10.802Z,7.70
2022-11-24T12:24:37.546Z,7.70
2022-11-24T12:27:04.237Z,7.70
2022-11-24T12:29:30.894Z,7.70
2022-11-24T12:31:57.564Z,7.70
2022-11-24T12:34:24.229Z,7.70
2022-11-24T12:36:50.867Z,7.80
2022-11-24T12:39:17.747Z,7.90
2022-11-24T12:41:44.616Z,7.80
2022-11-24T12:44:11.489Z,8.00
2022-11-24T12:46:38.177Z,8.00
2022-11-24T12:49:04.885Z,8.00
2022-11-24T12:51:31.767Z,8.00
2022-11-24T12:53:58.427Z,8.10
2022-11-24T12:56:25.095Z,8.00
2022-11-24T12:58:51.768Z,8.00
2022-11-24T13:01:18.892Z,8.00
2022-11-24T13:03:45.644Z,7.90
2022-11-24T13:06:12.300Z,7.90
2022-11-24T13:08:39.210Z,7.90
2022-11-24T13:11:06.070Z,7.90
2022-11-24T13:13:32.932Z,7.90
2022-11-24T13:18:46.515Z,7.90
2022-11-24T13:21:13.187Z,7.90
2022-11-24T13:23:39.828Z,7.90
2022-11-24T13:26:06.488Z,7.90
2022-11-24T13:29:00.373Z,7.90
2022-11-24T13:31:19.850Z,7.90
2022-11-24T13:33:46.605Z,7.90
2022-11-24T13:36:13.485Z,7.90
2022-11-24T13:38:40.157Z,8.10
2022-11-24T13:41:27.666Z,8.40
2022-11-24T13:43:53.668Z,8.30
2022-11-24T13:46:20.540Z,8.30
2022-11-24T13:48:47.212Z,8.20
2022-11-24T13:51:13.872Z,8.20
2022-11-24T13:53:40.553Z,8.20
2022-11-24T13:56:07.241Z,8.40
2022-11-24T13:58:34.098Z,8.30
2022-11-24T14:01:00.861Z,8.20
2022-11-24T14:03:27.614Z,8.30
2022-11-24T14:05:54.336Z,8.20
2022-11-24T14:08:20.996Z,8.10
2022-11-24T14:10:47.660Z,8.10
2022-11-24T14:13:14.345Z,8.00
2022-11-24T14:15:41.044Z,8.00
2022-11-24T14:18:07.704Z,8.00
2022-11-24T14:20:34.374Z,8.00
2022-11-24T14:23:01.017Z,8.00
2022-11-24T14:25:27.688Z,7.90
2022-11-24T14:27:54.442Z,7.90
2022-11-24T14:30:21.158Z,7.90
2022-11-24T14:32:47.821Z,7.90
2022-11-24T14:35:14.571Z,7.90
2022-11-24T14:37:41.258Z,7.90
2022-11-24T14:40:07.993Z,7.90
2022-11-24T14:42:34.746Z,7.90
2022-11-24T14:45:01.393Z,7.90
2022-11-24T14:47:31.434Z,7.90
2022-11-24T14:49:58.595Z,7.90
2022-11-24T14:52:25.254Z,7.80
2022-11-24T14:54:51.917Z,7.80
2022-11-24T14:57:18.597Z,7.80
2022-11-24T14:59:45.479Z,7.80
2022-11-24T15:02:12.262Z,7.80
2022-11-24T15:05:01.550Z,7.80
2022-11-24T15:07:25.929Z,7.80
2022-11-24T15:09:52.729Z,7.80
2022-11-24T15:12:19.384Z,7.80
2022-11-24T15:14:46.263Z,7.80
2022-11-24T15:17:12.929Z,7.70
2022-11-24T15:19:39.812Z,7.70
2022-11-24T15:22:06.452Z,7.80
2022-11-24T15:24:33.307Z,7.80
2022-11-24T15:27:00.150Z,7.70
2022-11-24T15:29:26.798Z,7.70
2022-11-24T15:31:53.720Z,7.70
2022-11-24T15:34:20.434Z,7.70
2022-11-24T15:36:47.095Z,7.60
2022-11-24T15:39:13.750Z,7.70
2022-11-24T15:41:40.407Z,7.70
2022-11-24T15:44:07.295Z,7.70
2022-11-24T15:46:34.190Z,7.70
2022-11-24T15:49:00.861Z,7.60
2022-11-24T15:51:27.510Z,7.60
2022-11-24T15:53:58.715Z,7.60
2022-11-24T15:56:27.238Z,7.60
2022-11-24T15:58:54.122Z,7.60
2022-11-24T16:01:20.832Z,7.60
2022-11-24T16:03:48.862Z,7.60
2022-11-24T16:06:20.592Z,7.60
2022-11-24T16:08:50.219Z,7.60
2022-11-24T16:11:17.112Z,7.60
2022-11-24T16:13:50.125Z,7.50
2022-11-24T16:16:19.006Z,7.50
2022-11-24T16:18:45.787Z,7.50
2022-11-24T16:21:12.463Z,7.50
2022-11-24T16:23:39.124Z,7.50
2022-11-24T16:26:05.770Z,7.50
2022-11-24T16:28:32.630Z,7.50
2022-11-24T16:31:00.201Z,7.50
2022-11-24T16:33:26.851Z,7.50
2022-11-24T16:35:53.699Z,7.50
2022-11-24T16:38:20.362Z,7.50
2022-11-24T16:40:47.039Z,7.50
2022-11-24T16:43:13.685Z,7.40
2022-11-24T16:45:45.160Z,7.40
2022-11-24T16:48:12.280Z,7.40
2022-11-24T16:50:39.170Z,7.40
2022-11-24T16:53:05.846Z,7.40
2022-11-24T16:55:32.719Z,7.40
2022-11-24T16:57:59.365Z,7.40
2022-11-24T17:00:26.022Z,7.40
2022-11-24T17:02:52.787Z,7.40
2022-11-24T17:05:19.461Z,7.40
2022-11-24T17:07:46.192Z,7.40
2022-11-24T17:10:13.130Z,7.40
2022-11-24T17:12:39.771Z,7.40
2022-11-24T17:18:22.334Z,7.40
2022-11-24T17:20:39.899Z,7.40
2022-11-24T17:23:06.758Z,7.40
2022-11-24T17:25:33.424Z,7.40
2022-11-24T17:28:00.075Z,7.40
2022-11-24T17:30:26.758Z,7.40
2022-11-24T17:32:56.803Z,7.40
2022-11-24T17:35:23.666Z,7.40
2022-11-24T17:37:50.324Z,7.40
2022-11-24T17:40:32.132Z,7.40
2022-11-24T17:42:59.076Z,7.40
2022-11-24T17:45:25.773Z,7.30
2022-11-24T17:47:52.447Z,7.30
2022-11-24T17:50:22.552Z,7.30
2022-11-24T17:52:52.563Z,7.40
2022-11-24T17:55:19.240Z,7.30
2022-11-24T17:57:45.888Z,7.30
2022-11-24T18:00:12.552Z,7.30
2022-11-24T18:02:39.274Z,7.30
2022-11-24T18:05:05.964Z,7.30
2022-11-24T18:07:32.644Z,7.30
2022-11-24T18:09:59.531Z,7.30
2022-11-24T18:12:26.173Z,7.30
2022-11-24T18:14:52.823Z,7.30
2022-11-24T18:17:19.462Z,7.30
2022-11-24T18:19:46.111Z,7.30
2022-11-24T18:22:12.996Z,7.30
2022-11-24T18:24:39.855Z,7.30
2022-11-24T18:27:06.791Z,7.30
2022-11-24T18:29:33.438Z,7.30
2022-11-24T18:32:00.216Z,7.30
2022-11-24T18:34:26.971Z,7.30
2022-11-24T18:36:53.648Z,7.30
2022-11-24T18:39:20.520Z,7.30
2022-11-24T18:41:47.196Z,7.30
2022-11-24T18:44:14.615Z,7.30
2022-11-24T18:46:41.283Z,7.30
2022-11-24T18:49:08.159Z,7.20
2022-11-24T18:51:35.044Z,7.30
2022-11-24T18:54:01.713Z,7.30
2022-11-24T18:56:28.384Z,7.30
2022-11-24T18:58:55.033Z,7.30
2022-11-24T19:01:21.841Z,7.20
2022-11-24T19:03:49.429Z,7.30
2022-11-24T19:06:16.207Z,7.30
2022-11-24T19:08:42.864Z,7.30
2022-11-24T19:11:09.504Z,7.20
2022-11-24T19:13:36.163Z,7.20
2022-11-24T19:16:03.016Z,7.20
2022-11-24T19:18:29.670Z,7.20
2022-11-24T19:20:56.550Z,7.20
2022-11-24T19:23:23.222Z,7.20
2022-11-24T19:25:49.889Z,7.20
2022-11-24T19:28:16.537Z,7.20
2022-11-24T19:30:43.189Z,7.20
2022-11-24T19:33:09.849Z,7.20
2022-11-24T19:35:36.513Z,7.20
2022-11-24T19:38:03.184Z,7.20
2022-11-24T19:40:29.831Z,7.20
2022-11-24T19:42:56.503Z,7.20
2022-11-24T19:45:23.402Z,7.20
2022-11-24T19:47:50.061Z,7.20
2022-11-24T19:50:16.692Z,7.20
2022-11-24T19:52:43.570Z,7.20
2022-11-24T19:55:10.242Z,7.20
2022-11-24T19:57:36.889Z,7.20
2022-11-24T20:00:03.524Z,7.20
2022-11-24T20:02:30.206Z,7.20
2022-11-24T20:04:56.912Z,7.20
2022-11-24T20:07:23.610Z,7.20
2022-11-24T20:09:50.317Z,7.20
2022-11-24T20:12:16.959Z,7.20
2022-11-24T20:14:43.618Z,7.20
2022-11-24T20:17:10.262Z,7.20
2022-11-24T20:19:36.896Z,7.20
2022-11-24T20:22:03.558Z,7.20
2022-11-24T20:24:30.199Z,7.20
2022-11-24T20:26:56.857Z,7.20
2022-11-24T20:29:23.546Z,7.20
2022-11-24T20:31:50.428Z,7.20
2022-11-24T20:34:17.119Z,7.20
2022-11-24T20:36:43.971Z,7.20
2022-11-24T20:39:10.846Z,7.20
2022-11-24T20:41:37.493Z,7.20
2022-11-24T20:44:04.369Z,7.20
2022-11-24T20:46:31.242Z,7.20
2022-11-24T20:48:57.899Z,7.20
2022-11-24T20:51:24.563Z,7.10
2022-11-24T20:53:51.224Z,7.10
2022-11-24T20:56:17.893Z,7.20
2022-11-24T20:58:44.559Z,7.10
2022-11-24T21:01:11.510Z,7.10
2022-11-24T21:03:42.761Z,7.10
2022-11-24T21:06:10.083Z,7.10
2022-11-24T21:08:36.723Z,7.10
2022-11-24T21:11:03.413Z,7.10
2022-11-24T21:13:30.061Z,7.10
2022-11-24T21:15:56.791Z,7.10
2022-11-24T21:18:23.681Z,7.10
2022-11-24T21:20:50.329Z,7.20
2022-11-24T21:23:16.980Z,7.10
2022-11-24T21:25:43.628Z,7.10
2022-11-24T21:28:10.264Z,7.10
2022-11-24T21:30:36.938Z,7.10
2022-11-24T21:33:03.609Z,7.10
2022-11-24T21:35:30.292Z,7.10
2022-11-24T21:37:56.946Z,7.10
2022-11-24T21:40:23.583Z,7.10
2022-11-24T21:42:50.452Z,7.10
2022-11-24T21:45:17.123Z,7.10
2022-11-24T21:47:43.788Z,7.10
2022-11-24T21:50:10.432Z,7.10
2022-11-24T21:52:37.285Z,7.10
2022-11-24T21:55:03.923Z,7.10
2022-11-24T21:57:30.560Z,7.10
2022-11-24T21:59:57.227Z,7.10
2022-11-24T22:02:24.137Z,7.10
2022-11-24T22:04:50.833Z,7.10
2022-11-24T22:07:17.498Z,7.10
2022-11-24T22:09:44.178Z,7.10
2022-11-24T22:12:10.821Z,7.10
2022-11-24T22:14:40.567Z,7.10
2022-11-24T22:17:07.431Z,7.10
2022-11-24T22:19:34.093Z,7.10
2022-11-24T22:22:00.981Z,7.00
2022-11-24T22:24:27.634Z,7.10
2022-11-24T22:26:54.305Z,7.10
2022-11-24T22:29:20.980Z,7.00
2022-11-24T22:31:47.959Z,7.00
2022-11-24T22:34:14.641Z,7.10
2022-11-24T22:36:41.306Z,7.00
2022-11-24T22:39:08.185Z,7.00
2022-11-24T22:41:34.838Z,7.10
2022-11-24T22:44:01.723Z,7.10
2022-11-24T22:46:28.395Z,7.00
2022-11-24T22:48:55.279Z,7.10
2022-11-24T22:51:21.940Z,7.10
2022-11-24T22:53:48.793Z,7.00
2022-11-24T22:56:15.645Z,7.00
2022-11-24T22:58:42.520Z,7.00
2022-11-24T23:01:09.404Z,7.10
2022-11-24T23:03:36.127Z,7.00
2022-11-24T23:06:02.876Z,7.10
2022-11-24T23:08:29.523Z,7.00
2022-11-24T23:10:56.167Z,7.00
2022-11-24T23:13:22.807Z,7.00
2022-11-24T23:15:49.469Z,7.00
2022-11-24T23:18:16.281Z,7.00
2022-11-24T23:20:42.934Z,7.00
2022-11-24T23:23:10.427Z,7.00
2022-11-24T23:25:37.067Z,7.00
2022-11-24T23:28:03.709Z,7.00
2022-11-24T23:30:30.355Z,7.00
2022-11-24T23:32:57.223Z,7.00
2022-11-24T23:35:23.896Z,7.00
2022-11-24T23:38:07.154Z,7.00
2022-11-24T23:40:34.485Z,7.00
2022-11-24T23:43:01.388Z,7.00
2022-11-24T23:45:28.120Z,7.00
2022-11-24T23:47:54.779Z,7.00
2022-11-24T23:50:21.442Z,7.00
2022-11-24T23:52:48.107Z,7.00
2022-11-24T23:55:14.960Z,7.00
2022-11-24T23:57:41.628Z,7.00
